createdAt,value
2022-10-02T00:01:12.387Z,14.18
2022-10-02T00:03:21.421Z,16.55
2022-10-02T00:05:35.755Z,13.10
2022-10-02T00:07:43.126Z,12.45
2022-10-02T00:09:54.310Z,13.13
2022-10-02T00:12:00.466Z,11.15
2022-10-02T00:14:07.067Z,13.60
2022-10-02T00:16:17.435Z,8.70
2022-10-02T00:18:25.212Z,14.15
2022-10-02T00:20:35.905Z,13.52
2022-10-02T00:22:48.257Z,12.85
2022-10-02T00:25:00.331Z,15.07
2022-10-02T00:27:15.713Z,12.30
2022-10-02T00:29:34.055Z,15.45
2022-10-02T00:31:48.407Z,11.38
2022-10-02T00:34:04.058Z,10.38
2022-10-02T00:36:22.102Z,7.95
2022-10-02T00:38:38.767Z,10.40
2022-10-02T00:41:12.253Z,12.35
2022-10-02T00:43:25.393Z,11.45
2022-10-02T00:45:49.749Z,13.90
2022-10-02T00:48:03.367Z,10.68
2022-10-02T00:50:25.395Z,13.10
2022-10-02T00:52:50.921Z,12.25
2022-10-02T00:55:20.506Z,18.67
2022-10-02T00:57:41.655Z,13.10
2022-10-02T01:00:02.375Z,12.05
2022-10-02T01:02:12.494Z,9.77
2022-10-02T01:04:21.888Z,7.88
2022-10-02T01:06:28.720Z,9.05
2022-10-02T01:08:32.565Z,11.20
2022-10-02T01:10:37.244Z,8.20
2022-10-02T01:12:42.011Z,7.38
2022-10-02T01:14:45.303Z,12.82
2022-10-02T01:16:49.276Z,8.35
2022-10-02T01:18:52.856Z,12.77
2022-10-02T01:21:01.207Z,8.32
2022-10-02T01:23:17.105Z,9.18
2022-10-02T01:25:21.924Z,7.97
2022-10-02T01:27:26.553Z,21.55
2022-10-02T01:29:30.326Z,9.77
2022-10-02T01:31:36.159Z,9.02
2022-10-02T01:33:41.825Z,10.05
2022-10-02T01:35:45.600Z,12.18
2022-10-02T01:37:51.551Z,9.27
2022-10-02T01:39:55.304Z,15.38
2022-10-02T01:42:00.224Z,18.13
2022-10-02T01:44:04.260Z,9.35
2022-10-02T01:46:25.738Z,9.23
2022-10-02T01:48:46.289Z,11.65
2022-10-02T01:51:00.637Z,10.07
2022-10-02T01:53:11.320Z,6.20
2022-10-02T01:55:26.086Z,8.18
2022-10-02T01:57:39.869Z,12.82
2022-10-02T01:59:52.214Z,9.02
2022-10-02T02:02:10.732Z,14.82
2022-10-02T02:04:25.096Z,8.65
2022-10-02T02:06:31.921Z,14.30
2022-10-02T02:08:40.476Z,13.65
2022-10-02T02:10:52.792Z,14.20
2022-10-02T02:13:03.766Z,10.83
2022-10-02T02:15:11.223Z,10.35
2022-10-02T02:17:19.676Z,11.30
2022-10-02T02:19:27.103Z,14.07
2022-10-02T02:21:34.311Z,15.50
2022-10-02T02:23:40.900Z,13.73
2022-10-02T02:25:47.955Z,13.68
2022-10-02T02:27:56.005Z,12.45
2022-10-02T02:30:05.423Z,10.43
2022-10-02T02:32:11.112Z,7.00
2022-10-02T02:34:18.844Z,15.80
2022-10-02T02:36:26.381Z,10.60
2022-10-02T02:38:33.279Z,10.13
2022-10-02T02:40:40.704Z,14.23
2022-10-02T02:42:49.193Z,12.75
2022-10-02T02:44:56.872Z,10.23
2022-10-02T02:47:06.895Z,9.45
2022-10-02T02:49:13.024Z,9.88
2022-10-02T02:51:20.726Z,9.57
2022-10-02T02:53:29.693Z,8.75
2022-10-02T02:55:36.126Z,12.07
2022-10-02T02:57:45.257Z,6.38
2022-10-02T02:59:50.989Z,11.88
2022-10-02T03:01:54.956Z,15.32
2022-10-02T03:03:59.837Z,12.35
2022-10-02T03:06:23.783Z,13.45
2022-10-02T03:08:30.096Z,14.85
2022-10-02T03:10:43.542Z,11.57
2022-10-02T03:12:59.667Z,14.48
2022-10-02T03:15:20.823Z,16.05
2022-10-02T03:17:42.235Z,11.93
2022-10-02T03:19:52.175Z,15.57
2022-10-02T03:22:03.832Z,22.73
2022-10-02T03:24:15.191Z,16.45
2022-10-02T03:26:22.724Z,10.63
2022-10-02T03:28:54.359Z,16.75
2022-10-02T03:30:57.458Z,16.85
2022-10-02T03:33:01.941Z,11.10
2022-10-02T03:35:11.923Z,9.00
2022-10-02T03:37:16.061Z,13.23
2022-10-02T03:39:25.224Z,12.35
2022-10-02T03:41:29.589Z,12.88
2022-10-02T03:43:33.153Z,12.38
2022-10-02T03:45:51.098Z,17.17
2022-10-02T03:47:55.277Z,10.40
2022-10-02T03:49:59.135Z,10.55
2022-10-02T03:52:04.466Z,12.48
2022-10-02T03:54:17.287Z,16.30
2022-10-02T03:56:31.746Z,14.35
2022-10-02T03:58:39.434Z,17.98
2022-10-02T04:00:49.840Z,10.65
2022-10-02T04:02:58.199Z,13.23
2022-10-02T04:05:06.887Z,15.15
2022-10-02T04:07:20.116Z,7.90
2022-10-02T04:09:29.255Z,21.15
2022-10-02T04:11:37.625Z,16.10
2022-10-02T04:13:47.299Z,11.48
2022-10-02T04:16:04.335Z,14.32
2022-10-02T04:18:17.128Z,17.33
2022-10-02T04:20:26.465Z,19.02
2022-10-02T04:22:38.453Z,15.68
2022-10-02T04:24:47.578Z,18.80
2022-10-02T04:27:04.026Z,16.23
2022-10-02T04:29:17.402Z,18.80
2022-10-02T04:33:26.420Z,14.80
2022-10-02T04:35:35.252Z,17.23
2022-10-02T04:38:10.329Z,17.02
2022-10-02T04:40:28.305Z,15.27
2022-10-02T04:42:45.263Z,11.40
2022-10-02T04:45:02.494Z,21.92
2022-10-02T04:47:21.721Z,14.23
2022-10-02T04:49:59.982Z,22.45
2022-10-02T04:52:24.086Z,16.55
2022-10-02T04:54:53.645Z,13.25
2022-10-02T04:57:17.930Z,13.85
2022-10-02T04:59:35.588Z,9.48
2022-10-02T05:01:51.680Z,20.48
2022-10-02T05:04:20.667Z,14.20
2022-10-02T05:06:40.727Z,18.23
2022-10-02T05:08:59.513Z,17.92
2022-10-02T05:11:22.470Z,15.07
2022-10-02T05:13:43.499Z,19.17
2022-10-02T05:15:59.648Z,22.73
2022-10-02T05:18:18.122Z,20.40
2022-10-02T05:20:54.219Z,14.05
2022-10-02T05:23:15.643Z,18.25
2022-10-02T05:25:43.753Z,10.23
2022-10-02T05:28:04.390Z,17.30
2022-10-02T05:30:11.487Z,19.10
2022-10-02T05:32:30.351Z,16.17
2022-10-02T05:34:48.175Z,14.85
2022-10-02T05:37:07.531Z,15.15
2022-10-02T05:39:18.527Z,15.95
2022-10-02T05:41:31.525Z,9.95
2022-10-02T05:43:43.911Z,13.27
2022-10-02T05:45:53.905Z,14.07
2022-10-02T05:48:07.689Z,15.75
2022-10-02T05:50:18.281Z,11.82
2022-10-02T05:52:26.290Z,15.32
2022-10-02T05:54:39.662Z,18.13
2022-10-02T05:56:49.457Z,11.73
2022-10-02T05:58:59.933Z,11.45
2022-10-02T06:01:08.313Z,12.20
2022-10-02T06:03:19.087Z,16.20
2022-10-02T06:05:27.580Z,18.58
2022-10-02T06:07:33.588Z,15.82
2022-10-02T06:09:46.303Z,13.52
2022-10-02T06:11:54.459Z,11.63
2022-10-02T06:14:04.920Z,10.45
2022-10-02T06:16:15.974Z,15.63
2022-10-02T06:18:24.001Z,12.75
2022-10-02T06:20:34.113Z,11.48
2022-10-02T06:22:45.697Z,19.48
2022-10-02T06:24:54.939Z,17.20
2022-10-02T06:27:04.512Z,13.82
2022-10-02T06:29:18.763Z,17.42
2022-10-02T06:31:36.285Z,12.48
2022-10-02T06:33:40.197Z,16.50
2022-10-02T06:36:02.058Z,16.40
2022-10-02T06:38:18.931Z,19.10
2022-10-02T06:40:44.559Z,12.80
2022-10-02T06:42:58.874Z,16.27
2022-10-02T06:45:13.869Z,18.35
2022-10-02T06:47:28.356Z,15.45
2022-10-02T06:49:47.997Z,12.45
2022-10-02T06:52:05.007Z,12.70
2022-10-02T06:54:21.213Z,12.50
2022-10-02T06:56:53.696Z,11.45
2022-10-02T06:59:13.706Z,12.20
2022-10-02T07:01:34.368Z,10.25
2022-10-02T07:03:59.858Z,12.70
2022-10-02T07:06:17.531Z,7.50
2022-10-02T07:08:32.642Z,15.40
2022-10-02T07:10:43.512Z,15.13
2022-10-02T07:13:04.816Z,17.05
2022-10-02T07:15:29.779Z,23.23
2022-10-02T07:17:50.150Z,14.57
2022-10-02T07:20:23.342Z,18.83
2022-10-02T07:22:44.870Z,10.80
2022-10-02T07:25:06.872Z,15.07
2022-10-02T07:27:18.232Z,20.70
2022-10-02T07:29:39.028Z,16.92
2022-10-02T07:31:56.381Z,12.48
2022-10-02T07:34:16.270Z,12.80
2022-10-02T07:36:33.304Z,12.73
2022-10-02T07:38:54.761Z,13.45
2022-10-02T07:41:20.041Z,14.10
2022-10-02T07:43:38.122Z,14.23
2022-10-02T07:45:43.456Z,18.38
2022-10-02T07:48:09.468Z,19.02
2022-10-02T07:50:20.037Z,14.82
2022-10-02T07:52:34.175Z,15.68
2022-10-02T07:55:00.265Z,14.40
2022-10-02T07:57:14.174Z,11.30
2022-10-02T07:59:19.729Z,11.20
2022-10-02T08:01:27.629Z,14.30
2022-10-02T08:03:36.338Z,10.70
2022-10-02T08:05:45.504Z,17.42
2022-10-02T08:07:51.069Z,15.05
2022-10-02T08:09:57.583Z,14.40
2022-10-02T08:12:07.101Z,8.88
2022-10-02T08:14:19.671Z,11.77
2022-10-02T08:16:26.198Z,13.80
2022-10-02T08:18:36.016Z,11.32
2022-10-02T08:20:45.362Z,19.27
2022-10-02T08:22:53.465Z,11.48
2022-10-02T08:25:03.299Z,11.27
2022-10-02T08:27:14.227Z,12.65
2022-10-02T08:29:24.090Z,10.40
2022-10-02T08:31:27.867Z,9.90
2022-10-02T08:33:33.138Z,10.45
2022-10-02T08:35:47.859Z,15.48
2022-10-02T08:38:22.277Z,11.60
2022-10-02T08:41:05.064Z,12.70
2022-10-02T08:43:56.243Z,11.18
2022-10-02T08:46:31.834Z,13.15
2022-10-02T08:49:15.245Z,14.80
2022-10-02T08:51:45.058Z,14.02
2022-10-02T08:54:26.326Z,14.43
2022-10-02T08:56:44.734Z,12.00
2022-10-02T08:59:27.795Z,19.20
2022-10-02T09:01:59.805Z,10.95
2022-10-02T09:04:38.414Z,8.40
2022-10-02T09:07:21.457Z,14.95
2022-10-02T09:10:14.690Z,11.98
2022-10-02T09:12:59.553Z,13.00
2022-10-02T09:15:16.293Z,13.70
2022-10-02T09:17:47.623Z,10.80
2022-10-02T09:20:06.915Z,11.60
2022-10-02T09:22:33.828Z,9.73
2022-10-02T09:25:08.874Z,11.73
2022-10-02T09:27:45.762Z,11.40
2022-10-02T09:30:15.300Z,5.68
2022-10-02T09:32:51.697Z,10.98
2022-10-02T09:35:26.518Z,10.75
2022-10-02T09:38:05.515Z,16.15
2022-10-02T09:40:54.504Z,11.45
2022-10-02T09:43:30.309Z,10.52
2022-10-02T09:46:34.117Z,9.10
2022-10-02T09:49:24.583Z,14.30
2022-10-02T09:51:51.635Z,14.52
2022-10-02T09:54:21.663Z,9.68
2022-10-02T09:56:55.069Z,13.68
2022-10-02T09:59:35.633Z,7.95
2022-10-02T10:02:03.265Z,11.45
2022-10-02T10:04:47.878Z,12.65
2022-10-02T10:07:27.372Z,10.98
2022-10-02T10:10:00.167Z,17.48
2022-10-02T10:12:41.679Z,12.13
2022-10-02T10:15:19.545Z,7.75
2022-10-02T10:17:56.831Z,9.65
2022-10-02T10:20:50.602Z,11.95
2022-10-02T10:23:12.659Z,13.68
2022-10-02T10:25:57.318Z,17.25
2022-10-02T10:28:34.376Z,11.82
2022-10-02T10:31:06.048Z,11.43
2022-10-02T10:33:59.976Z,9.65
2022-10-02T10:36:52.596Z,8.60
2022-10-02T10:39:07.357Z,6.35
2022-10-02T10:41:29.244Z,11.05
2022-10-02T10:44:12.840Z,6.47
2022-10-02T10:46:49.122Z,7.07
2022-10-02T10:49:09.808Z,8.98
2022-10-02T10:51:33.864Z,8.70
2022-10-02T10:54:06.296Z,10.63
2022-10-02T10:56:33.631Z,9.65
2022-10-02T10:58:55.526Z,9.57
2022-10-02T11:01:11.112Z,7.82
2022-10-02T11:03:31.692Z,5.60
2022-10-02T11:05:58.452Z,12.10
2022-10-02T11:08:21.255Z,8.10
2022-10-02T11:10:45.093Z,12.20
2022-10-02T11:13:09.917Z,12.98
2022-10-02T11:15:45.665Z,8.63
2022-10-02T11:18:04.116Z,11.70
2022-10-02T11:20:45.408Z,7.65
2022-10-02T11:23:42.280Z,10.13
2022-10-02T11:26:01.934Z,10.23
2022-10-02T11:28:25.728Z,4.95
2022-10-02T11:30:42.643Z,4.78
2022-10-02T11:33:21.425Z,6.80
2022-10-02T11:35:48.159Z,10.30
2022-10-02T11:38:15.641Z,6.97
2022-10-02T11:40:34.203Z,8.38
2022-10-02T11:43:00.968Z,6.82
2022-10-02T11:45:21.346Z,8.10
2022-10-02T11:48:00.893Z,6.75
2022-10-02T11:50:54.629Z,7.47
2022-10-02T11:53:18.823Z,10.52
2022-10-02T11:55:38.039Z,9.02
2022-10-02T11:57:53.872Z,5.72
2022-10-02T12:00:13.568Z,8.07
2022-10-02T12:02:24.164Z,7.07
2022-10-02T12:04:40.802Z,5.00
2022-10-02T12:07:06.239Z,9.63
2022-10-02T12:09:18.105Z,7.57
2022-10-02T12:11:33.266Z,5.45
2022-10-02T12:14:01.357Z,4.07
2022-10-02T12:16:12.837Z,6.70
2022-10-02T12:18:25.537Z,5.53
2022-10-02T12:21:03.668Z,6.45
2022-10-02T12:23:47.435Z,8.50
2022-10-02T12:26:14.854Z,10.68
2022-10-02T12:28:25.819Z,10.90
2022-10-02T12:30:36.280Z,6.00
2022-10-02T12:33:18.682Z,5.72
2022-10-02T12:35:34.201Z,5.30
2022-10-02T12:37:47.392Z,6.43
2022-10-02T12:42:13.897Z,8.30
2022-10-02T12:44:51.641Z,5.65
2022-10-02T12:47:15.702Z,5.22
2022-10-02T12:49:35.431Z,7.68
2022-10-02T12:51:49.214Z,3.45
2022-10-02T12:54:22.765Z,2.45
2022-10-02T12:57:07.700Z,6.20
2022-10-02T12:59:21.803Z,5.68
2022-10-02T13:02:06.334Z,4.30
2022-10-02T13:04:46.682Z,3.15
2022-10-02T13:07:40.598Z,2.63
2022-10-02T13:09:51.622Z,5.65
2022-10-02T13:12:12.262Z,5.50
2022-10-02T13:14:33.290Z,9.25
2022-10-02T13:16:59.145Z,3.90
2022-10-02T13:19:21.173Z,5.35
2022-10-02T13:21:30.864Z,3.88
2022-10-02T13:23:42.214Z,3.50
2022-10-02T13:26:00.096Z,2.20
2022-10-02T13:28:18.256Z,5.35
2022-10-02T13:30:24.469Z,3.08
2022-10-02T13:32:46.653Z,1.98
2022-10-02T13:35:05.241Z,6.47
2022-10-02T13:37:19.464Z,9.52
2022-10-02T13:39:45.580Z,2.15
2022-10-02T13:42:06.793Z,3.53
2022-10-02T13:44:21.189Z,6.25
2022-10-02T13:46:45.323Z,4.70
2022-10-02T13:49:01.516Z,4.82
2022-10-02T13:51:08.784Z,4.28
2022-10-02T13:53:41.114Z,3.58
2022-10-02T13:55:48.665Z,1.52
2022-10-02T13:58:27.365Z,2.65
2022-10-02T14:01:14.153Z,3.40
2022-10-02T14:03:27.373Z,3.47
2022-10-02T14:05:39.273Z,2.55
2022-10-02T14:08:01.580Z,2.47
2022-10-02T14:10:13.746Z,1.38
2022-10-02T14:12:29.391Z,7.78
2022-10-02T14:14:49.664Z,4.28
2022-10-02T14:17:02.996Z,3.63
2022-10-02T14:19:37.338Z,3.85
2022-10-02T14:21:48.646Z,2.45
2022-10-02T14:24:13.647Z,3.80
2022-10-02T14:26:28.015Z,5.05
2022-10-02T14:28:48.899Z,4.65
2022-10-02T14:31:18.917Z,3.60
2022-10-02T14:33:31.145Z,2.35
2022-10-02T14:35:45.078Z,8.20
2022-10-02T14:38:06.142Z,6.72
2022-10-02T14:40:14.889Z,7.15
2022-10-02T14:42:46.002Z,2.90
2022-10-02T14:45:25.557Z,2.17
2022-10-02T14:47:56.792Z,3.03
2022-10-02T14:50:14.788Z,2.70
2022-10-02T14:52:38.115Z,3.63
2022-10-02T14:55:07.326Z,2.90
2022-10-02T14:57:30.383Z,3.47
2022-10-02T15:00:14.951Z,1.65
2022-10-02T15:02:52.330Z,4.28
2022-10-02T15:05:04.786Z,2.92
2022-10-02T15:07:11.823Z,4.47
2022-10-02T15:09:23.713Z,5.65
2022-10-02T15:11:46.872Z,2.42
2022-10-02T15:13:55.041Z,2.83
2022-10-02T15:16:21.976Z,6.07
2022-10-02T15:18:40.157Z,3.50
2022-10-02T15:20:59.565Z,4.72
2022-10-02T15:23:06.938Z,2.13
2022-10-02T15:25:18.378Z,3.40
2022-10-02T15:27:25.177Z,3.38
2022-10-02T15:29:44.694Z,4.40
2022-10-02T15:32:20.184Z,4.20
2022-10-02T15:34:31.532Z,3.97
2022-10-02T15:36:50.295Z,3.58
2022-10-02T15:39:19.391Z,2.92
2022-10-02T15:41:39.427Z,3.17
2022-10-02T15:43:54.572Z,3.13
2022-10-02T15:46:12.297Z,1.17
2022-10-02T15:48:43.867Z,5.60
2022-10-02T15:50:57.263Z,4.85
2022-10-02T15:55:23.902Z,3.90
2022-10-02T15:57:50.919Z,4.05
2022-10-02T16:00:13.335Z,5.00
2022-10-02T16:02:48.728Z,3.67
2022-10-02T16:05:04.617Z,3.88
2022-10-02T16:07:49.381Z,4.15
2022-10-02T16:10:04.926Z,2.58
2022-10-02T16:12:31.795Z,4.15
2022-10-02T16:14:57.488Z,7.80
2022-10-02T16:17:27.618Z,3.80
2022-10-02T16:19:48.798Z,3.13
2022-10-02T16:22:15.609Z,3.65
2022-10-02T16:24:53.240Z,4.03
2022-10-02T16:27:16.074Z,5.63
2022-10-02T16:29:30.685Z,3.93
2022-10-02T16:31:55.936Z,2.28
2022-10-02T16:34:04.160Z,2.05
2022-10-02T16:36:39.608Z,5.15
2022-10-02T16:38:49.958Z,9.75
2022-10-02T16:40:58.797Z,3.50
2022-10-02T16:43:34.004Z,3.75
2022-10-02T16:45:55.459Z,4.65
2022-10-02T16:48:09.247Z,2.00
2022-10-02T16:50:21.186Z,4.15
2022-10-02T16:52:32.111Z,4.13
2022-10-02T16:54:47.385Z,3.85
2022-10-02T16:56:56.241Z,4.72
2022-10-02T16:59:06.778Z,2.60
2022-10-02T17:01:25.413Z,4.22
2022-10-02T17:03:35.843Z,7.18
2022-10-02T17:05:48.077Z,6.93
2022-10-02T17:07:57.896Z,10.43
2022-10-02T17:10:09.765Z,8.02
2022-10-02T17:12:22.672Z,4.68
2022-10-02T17:14:40.042Z,3.75
2022-10-02T17:16:49.191Z,5.60
2022-10-02T17:18:57.850Z,6.72
2022-10-02T17:21:13.100Z,6.55
2022-10-02T17:23:26.756Z,5.97
2022-10-02T17:25:38.428Z,6.38
2022-10-02T17:27:50.127Z,6.53
2022-10-02T17:30:00.527Z,5.72
2022-10-02T17:32:04.349Z,6.35
2022-10-02T17:34:21.236Z,3.20
2022-10-02T17:36:32.942Z,4.28
2022-10-02T17:38:50.658Z,7.47
2022-10-02T17:41:06.327Z,7.32
2022-10-02T17:43:23.850Z,3.63
2022-10-02T17:45:39.111Z,5.40
2022-10-02T17:47:59.699Z,2.33
2022-10-02T17:50:27.097Z,6.22
2022-10-02T17:53:12.773Z,5.70
2022-10-02T17:56:04.338Z,15.93
2022-10-02T17:58:17.741Z,23.92
2022-10-02T18:02:50.608Z,31.27
2022-10-02T18:05:19.732Z,18.15
2022-10-02T18:07:43.185Z,9.60
2022-10-02T18:09:58.135Z,8.40
2022-10-02T18:12:22.179Z,13.82
2022-10-02T18:14:50.597Z,21.65
2022-10-02T18:17:15.450Z,16.60
2022-10-02T18:19:29.329Z,16.38
2022-10-02T18:21:41.302Z,9.68
2022-10-02T18:24:21.787Z,7.43
2022-10-02T18:26:36.036Z,8.88
2022-10-02T18:29:04.037Z,8.98
2022-10-02T18:31:44.199Z,7.28
2022-10-02T18:34:17.688Z,6.50
2022-10-02T18:36:40.952Z,12.57
2022-10-02T18:38:56.371Z,12.38
2022-10-02T18:41:21.180Z,7.65
2022-10-02T18:43:41.582Z,9.02
2022-10-02T18:45:56.233Z,8.68
2022-10-02T18:48:18.711Z,9.80
2022-10-02T18:50:37.323Z,10.50
2022-10-02T18:53:10.994Z,8.90
2022-10-02T18:55:50.413Z,18.48
2022-10-02T18:58:07.896Z,9.55
2022-10-02T19:00:19.194Z,10.60
2022-10-02T19:02:39.330Z,13.60
2022-10-02T19:05:05.007Z,12.18
2022-10-02T19:07:15.216Z,13.65
2022-10-02T19:09:26.309Z,16.05
2022-10-02T19:11:32.750Z,12.25
2022-10-02T19:13:42.606Z,10.90
2022-10-02T19:15:49.036Z,15.35
2022-10-02T19:18:01.298Z,13.48
2022-10-02T19:20:36.700Z,17.33
2022-10-02T19:22:40.719Z,13.40
2022-10-02T19:24:48.058Z,12.93
2022-10-02T19:26:57.550Z,12.88
2022-10-02T19:29:05.785Z,14.13
2022-10-02T19:31:11.542Z,15.50
2022-10-02T19:33:23.566Z,11.60
2022-10-02T19:35:32.728Z,17.45
2022-10-02T19:37:42.701Z,14.35
2022-10-02T19:39:54.200Z,20.50
2022-10-02T19:42:01.090Z,14.93
2022-10-02T19:44:13.107Z,15.13
2022-10-02T19:46:20.299Z,15.38
2022-10-02T19:48:28.039Z,21.67
2022-10-02T19:50:41.438Z,15.32
2022-10-02T19:52:53.081Z,15.05
2022-10-02T19:55:04.817Z,17.42
2022-10-02T19:57:15.300Z,14.80
2022-10-02T19:59:20.849Z,15.43
2022-10-02T20:01:28.034Z,13.68
2022-10-02T20:03:33.515Z,17.73
2022-10-02T20:05:38.774Z,12.82
2022-10-02T20:07:44.272Z,16.33
2022-10-02T20:09:53.946Z,18.40
2022-10-02T20:12:03.462Z,15.70
2022-10-02T20:14:12.351Z,16.05
2022-10-02T20:16:37.912Z,16.55
2022-10-02T20:18:42.085Z,16.55
2022-10-02T20:20:48.802Z,16.75
2022-10-02T20:22:56.204Z,17.88
2022-10-02T20:25:09.515Z,17.95
2022-10-02T20:29:31.718Z,21.88
2022-10-02T20:31:43.418Z,19.05
2022-10-02T20:33:50.640Z,20.30
2022-10-02T20:36:02.070Z,21.10
2022-10-02T20:38:12.534Z,20.73
2022-10-02T20:40:19.873Z,16.08
2022-10-02T20:42:31.777Z,15.77
2022-10-02T20:44:36.890Z,17.92
2022-10-02T20:47:17.216Z,19.52
2022-10-02T20:49:46.140Z,14.50
2022-10-02T20:52:41.902Z,11.63
2022-10-02T20:54:54.799Z,14.35
2022-10-02T20:58:01.463Z,13.00
2022-10-02T21:00:12.174Z,10.90
2022-10-02T21:02:34.932Z,15.30
2022-10-02T21:05:09.194Z,12.15
2022-10-02T21:07:46.892Z,15.32
2022-10-02T21:10:27.353Z,12.55
2022-10-02T21:13:00.514Z,10.68
2022-10-02T21:15:31.493Z,10.80
2022-10-02T21:18:12.205Z,10.77
2022-10-02T21:20:51.384Z,15.45
2022-10-02T21:23:29.420Z,8.68
2022-10-02T21:26:14.925Z,10.75
2022-10-02T21:28:47.981Z,15.98
2022-10-02T21:31:06.820Z,9.98
2022-10-02T21:33:15.845Z,9.57
2022-10-02T21:35:36.738Z,7.47
2022-10-02T21:37:53.805Z,8.48
2022-10-02T21:40:37.511Z,11.65
2022-10-02T21:43:15.448Z,7.50
2022-10-02T21:46:10.272Z,8.88
2022-10-02T21:49:01.805Z,16.60
2022-10-02T21:51:53.689Z,12.05
2022-10-02T21:54:42.491Z,6.45
2022-10-02T21:57:19.623Z,6.38
2022-10-02T21:59:43.098Z,7.30
2022-10-02T22:02:24.949Z,5.20
2022-10-02T22:04:53.037Z,5.18
2022-10-02T22:07:05.826Z,4.22
2022-10-02T22:09:37.246Z,10.10
2022-10-02T22:11:52.742Z,5.57
2022-10-02T22:14:03.185Z,6.90
2022-10-02T22:16:26.023Z,4.90
2022-10-02T22:18:39.457Z,5.15
2022-10-02T22:21:08.761Z,5.65
2022-10-02T22:23:43.027Z,5.60
2022-10-02T22:26:00.370Z,7.00
2022-10-02T22:28:17.839Z,5.45
2022-10-02T22:30:26.045Z,2.70
2022-10-02T22:33:13.470Z,22.02
2022-10-02T22:35:27.592Z,7.75
2022-10-02T22:37:48.051Z,5.95
2022-10-02T22:40:01.015Z,6.28
2022-10-02T22:42:12.809Z,6.38
2022-10-02T22:44:23.881Z,6.25
2022-10-02T22:46:41.162Z,5.03
2022-10-02T22:48:50.573Z,7.05
2022-10-02T22:50:59.623Z,4.72
2022-10-02T22:53:12.885Z,4.40
2022-10-02T22:57:30.378Z,9.35
2022-10-02T22:59:40.846Z,5.53
2022-10-02T23:01:51.302Z,6.50
2022-10-02T23:03:58.287Z,3.65
2022-10-02T23:06:06.025Z,4.30
2022-10-02T23:08:24.563Z,5.00
2022-10-02T23:10:35.667Z,6.47
2022-10-02T23:12:45.119Z,3.50
2022-10-02T23:15:02.135Z,4.93
2022-10-02T23:17:10.548Z,2.10
2022-10-02T23:19:21.358Z,2.95
2022-10-02T23:21:34.196Z,4.38
2022-10-02T23:23:51.125Z,3.90
2022-10-02T23:26:00.419Z,3.28
2022-10-02T23:28:09.336Z,2.35
2022-10-02T23:30:20.161Z,3.25
2022-10-02T23:32:31.721Z,1.67
2022-10-02T23:34:42.951Z,1.55
2022-10-02T23:36:51.903Z,5.47
2022-10-02T23:39:05.824Z,3.03
2022-10-02T23:41:33.956Z,2.42
2022-10-02T23:43:48.861Z,2.30
2022-10-02T23:46:00.451Z,2.17
2022-10-02T23:48:07.174Z,2.55
2022-10-02T23:50:22.857Z,4.07
2022-10-02T23:52:55.870Z,1.55
2022-10-02T23:55:14.235Z,2.70
2022-10-02T23:57:42.507Z,2.67
